Detall de PIREP

Printer-friendly versionPDF version

[2010/12/09 22:23:00]
Flight IATA:CT2106
Pilot Number:026
Company ICAO:CAT
Aircraft Type:DC85/A
PAX:136
Departing Airport: LEVC
Destination Airport: LEMD
Alternate Airport:LEMG
Online: VATSIM
Route:CENTA A33 PRADO
Flight Level:FL190
No Slew and time accel
No pause
Crash detect
Detect pilot in Cockpit between each 30 and 45 minutes
22:23 Zero fuel Weight: 178363 Lbs, Fuel Weight: 26984 Lbs
22:23 VATSIM:LEVC 092200Z VRB01KT 9999 FEW012 BKN018 14/12 Q1025 NOSIG
22:23 VATSIM:LEMD 092200Z 34005KT CAVOK 10/10 Q1025 R99/19//95 NOSIG
22:23 VOICE CATALONIAN / LEVC HUB ROUTE CT2106
22:29 Parking Brakes off
22:34 Take-off
22:34 Take off Weight: 204485 Lbs
22:34 Wind: 061º @ 003 Knots Heading: 296º
22:34 POS N39º 29´ 28´´ W000º 29´ 12´´
22:34 Gear Up: 197 Knots
22:34 Flaps:2 at 197 Knots
22:35 Flaps:1 at 219 Knots
22:35 Flaps:0 at 230 Knots
22:42 TOC
22:42 Fuel Weight: 23346 Lb
22:48 TOD
22:48 Fuel Weight: 21847 Lb
22:49 Wind:011º@011 Knots Heading: 299º Ground Speed: 412 Knots Altitude 18471 ft
23:01 Gear Down: 212 Knots
23:01 Flaps:1 at 192 Knots
23:01 Flaps:2 at 158 Knots
23:02 Flaps:3 at 142 Knots
23:03 Flaps:4 at 146 Knots
23:04 Wind:007º@005 Knots Heading: 323º Ground Speed: 140 Knots Altitude 2227 ft
23:04 Flaps:5 at 140 Knots
23:04 TouchDown:Rate -222 ft/min Speed: 135 Knots
23:04 VATSIM:LEMD 092230Z 34006KT CAVOK 10/09 Q1025 R99/19//95 NOSIG
23:04 Land
23:04 Wind:006º@005 Knots
23:04 Heading: 323º
23:04 Flight Duration: 00:30
23:04 Landing Weight: 198716 Lbs
23:04 POS N40º 28´ 25´´ W003º 33´ 52´´
23:11 Parking brakes on
23:11 Block to Block Duration: 00:42
23:11 Final Fuel: 19704 Lbls
23:11 Spent Fuel: 7279 Lbls
23:11 Flight Length: 162 NM
23:11 TOD Land Length: 76 NM

Exportar CSV

Powered by Drupal - Modified by Danger4k